Time;durP1;ratioP1;P1;durP2;ratioP2;P2;SDS_P1;SDS_P2;PMS_P1;PMS_P2;Temp;Humidity;BMP_temperature;BMP_pressure;BME280_temperature;BME280_humidity;BME280_pressure;Samples;Min_cycle;Max_cycle;Signal;HPM_P1;HPM_P2
2022/04/18 00:01:45;;;;;;;;;;;;;;;3.95;71.98;99935.97;6305824;22;19911;-83
2022/04/18 00:04:10;;;;;;;;;;;;;;;3.96;71.89;99936.84;6306233;22;19950;-84
2022/04/18 00:06:36;;;;;;;;;;;;;;;3.96;71.81;99934.25;6306816;22;19918;-83
2022/04/18 00:09:04;;;;;;;;;;;;;;;3.98;71.83;99932.44;6305479;22;19915;-85
2022/04/18 03:31:19;;;;;;;;;;;;;;;6.51;100.00;99796.13;6300171;22;20367;-82
2022/04/18 03:33:44;;;;;;;;;;;;;;;6.52;100.00;99797.88;6307743;22;19915;-82
2022/04/18 03:41:37;;;;;;;;;;;;;;;6.55;100.00;99795.16;6307677;22;19964;-83
2022/04/18 03:44:03;;;;;;;;;;;;;;;6.56;100.00;99791.63;6307290;22;19911;-82
2022/04/18 03:46:28;;;;;;;;;;;;;;;6.57;100.00;99788.09;6307155;22;19947;-81
2022/04/18 03:48:53;;;;;;;;;;;;;;;6.60;100.00;99795.91;6307737;22;20234;-81
2022/04/18 03:51:18;;;;;;;;;;;;;;;6.61;100.00;99794.16;6307703;22;19915;-81
2022/04/18 03:53:44;;;;;;;;;;;;;;;6.61;100.00;99788.88;6307968;22;20387;-81
2022/04/18 03:56:09;;;;;;;;;;;;;;;6.52;100.00;99784.72;6307610;22;19924;-82
2022/04/18 03:58:34;;;;;;;;;;;;;;;5.69;100.00;99791.97;6307428;22;19973;-82
2022/04/18 04:00:59;;;;;;;;;;;;;;;5.33;100.00;99798.00;6305922;22;20001;-82
2022/04/18 04:03:26;;;;;;;;;;;;;;;5.12;100.00;99794.03;6307422;22;19911;-83
2022/04/18 04:05:53;;;;;;;;;;;;;;;4.98;100.00;99798.72;6307446;22;19944;-83
2022/04/18 04:08:22;;;;;;;;;;;;;;;4.90;99.75;99797.13;6280079;22;19919;-83
2022/04/18 04:10:49;;;;;;;;;;;;;;;4.86;98.71;99805.94;6307648;22;19936;-83
2022/04/18 04:13:14;;;;;;;;;;;;;;;4.76;98.06;99804.38;6280084;22;19942;-83
2022/04/18 04:15:39;;;;;;;;;;;;;;;4.72;97.57;99800.97;6278348;22;19922;-84
2022/04/18 04:18:05;;;;;;;;;;;;;;;4.67;97.22;99801.94;6279801;22;20238;-84
2022/04/18 04:20:30;;;;;;;;;;;;;;;4.65;97.40;99801.97;6279993;22;19914;-86
2022/04/18 04:22:55;;;;;;;;;;;;;;;4.55;97.59;99798.63;6307275;22;19911;-83
2022/04/18 04:25:20;;;;;;;;;;;;;;;4.57;97.68;99795.13;6280280;22;19910;-83
2022/04/18 04:27:46;;;;;;;;;;;;;;;4.57;97.56;99792.50;6280186;22;19914;-83
2022/04/18 04:30:11;;;;;;;;;;;;;;;4.51;97.40;99799.56;6278298;22;19914;-83
2022/04/18 04:32:36;;;;;;;;;;;;;;;4.43;97.33;99800.63;6304708;22;19922;-83
2022/04/18 04:35:02;;;;;;;;;;;;;;;4.39;97.23;99805.06;6307093;22;19918;-84
2022/04/18 04:37:27;;;;;;;;;;;;;;;4.35;96.93;99803.38;6306794;22;20307;-83
2022/04/18 04:39:52;;;;;;;;;;;;;;;4.35;96.70;99804.22;6307049;22;19911;-84
2022/04/18 04:42:19;;;;;;;;;;;;;;;4.27;96.37;99805.25;6307159;22;20392;-83
2022/04/18 04:44:44;;;;;;;;;;;;;;;4.27;96.12;99805.25;6305274;22;19915;-83
2022/04/18 04:47:09;;;;;;;;;;;;;;;4.23;95.62;99798.31;6307040;22;19911;-83
2022/04/18 04:49:34;;;;;;;;;;;;;;;4.19;95.33;99795.75;6305282;22;20359;-83
2022/04/18 04:52:00;;;;;;;;;;;;;;;4.13;95.08;99793.25;6306934;22;20315;-83
2022/04/18 04:54:25;;;;;;;;;;;;;;;4.11;94.61;99796.78;6306931;22;20242;-82
2022/04/18 04:56:50;;;;;;;;;;;;;;;4.11;94.44;99799.41;6306714;22;19911;-82
2022/04/18 04:59:15;;;;;;;;;;;;;;;4.10;94.20;99803.78;6305227;22;19911;-83
2022/04/18 12:39:21;;;;;;;;;;;;;;;4.14;79.32;99592.19;6339512;22;19930;-80
2022/04/18 12:41:47;;;;;;;;;;;;;;;4.17;79.18;99585.09;6338401;22;20001;-83
2022/04/18 12:44:13;;;;;;;;;;;;;;;4.18;79.16;99583.38;6310323;22;20282;-82
2022/04/18 12:46:38;;;;;;;;;;;;;;;4.13;78.77;99567.72;6337540;22;19989;-84
2022/04/18 12:49:05;;;;;;;;;;;;;;;4.14;78.63;99571.19;6310726;22;19997;-83
2022/04/18 12:51:35;;;;;;;;;;;;;;;4.37;80.95;99568.09;6310396;22;19962;-83
2022/04/18 12:54:22;;;;;;;;;;;;;;;4.52;83.70;99567.78;6336556;22;19922;-82
2022/04/18 12:56:48;;;;;;;;;;;;;;;4.55;85.21;99557.22;6337083;22;19910;-83
2022/04/18 12:59:16;;;;;;;;;;;;;;;4.55;86.43;99564.22;6336663;22;19987;-82
2022/04/18 13:01:41;;;;;;;;;;;;;;;4.52;87.21;99559.03;6336798;22;20345;-82
2022/04/18 13:04:21;;;;;;;;;;;;;;;4.47;87.72;99556.50;6337575;22;19915;-83
2022/04/18 13:06:55;;;;;;;;;;;;;;;4.40;88.60;99561.91;6337522;22;19911;-83
2022/04/18 13:09:20;;;;;;;;;;;;;;;4.38;89.10;99556.72;6336611;22;19994;-83
2022/04/18 13:11:45;;;;;;;;;;;;;;;4.34;89.46;99555.03;6338068;22;19942;-83
2022/04/18 13:14:12;;;;;;;;;;;;;;;4.36;90.45;99559.38;6337778;22;19914;-82
2022/04/18 13:16:39;;;;;;;;;;;;;;;4.47;92.53;99550.41;6338111;22;19911;-82
2022/04/18 13:19:04;;;;;;;;;;;;;;;4.68;95.47;99546.44;6310009;22;19942;-82
2022/04/18 13:21:30;;;;;;;;;;;;;;;4.94;98.38;99537.09;6309343;22;19919;-83
2022/04/18 13:23:59;;;;;;;;;;;;;;;5.07;100.00;99526.28;6308918;22;20341;-82
2022/04/18 13:26:26;;;;;;;;;;;;;;;5.20;100.00;99516.31;6310483;22;19911;-83
2022/04/18 13:28:51;;;;;;;;;;;;;;;5.32;100.00;99522.16;6308766;22;19911;-83
2022/04/18 13:31:17;;;;;;;;;;;;;;;5.38;100.00;99512.34;6336500;22;19979;-83
2022/04/18 13:33:43;;;;;;;;;;;;;;;5.43;100.00;99505.22;6337194;22;20273;-82
2022/04/18 13:38:53;;;;;;;;;;;;;;;5.57;100.00;99509.25;6312267;22;20236;-83
2022/04/18 13:41:18;;;;;;;;;;;;;;;5.60;100.00;99503.88;6337891;22;19910;-84
2022/04/18 13:43:45;;;;;;;;;;;;;;;5.66;100.00;99503.72;6337388;22;19911;-83
2022/04/18 13:46:10;;;;;;;;;;;;;;;5.70;100.00;99496.63;6308804;22;20334;-84
2022/04/18 13:48:35;;;;;;;;;;;;;;;5.75;100.00;99492.09;6310243;22;19910;-83
2022/04/18 13:51:00;;;;;;;;;;;;;;;5.82;100.00;99491.00;6308651;22;19914;-83
2022/04/18 13:53:26;;;;;;;;;;;;;;;5.86;100.00;99495.28;6307478;22;19917;-82
2022/04/18 13:55:51;;;;;;;;;;;;;;;5.89;100.00;99482.06;6336858;22;19945;-83
2022/04/18 13:58:16;;;;;;;;;;;;;;;5.90;100.00;99486.41;6337069;22;20001;-83
2022/04/18 14:00:43;;;;;;;;;;;;;;;5.91;100.00;99477.63;6309770;22;19914;-84
2022/04/18 14:03:08;;;;;;;;;;;;;;;5.99;100.00;99473.03;6310026;22;19906;-84
2022/04/18 14:05:36;;;;;;;;;;;;;;;5.98;100.00;99473.94;6335849;22;20334;-82
2022/04/18 14:08:01;;;;;;;;;;;;;;;5.99;100.00;99477.44;6308561;22;19967;-82
2022/04/18 14:10:27;;;;;;;;;;;;;;;6.03;100.00;99467.69;6337868;22;19907;-82
2022/04/18 14:12:52;;;;;;;;;;;;;;;6.07;100.00;99471.94;6338874;22;20367;-82
2022/04/18 14:20:45;;;;;;;;;;;;;;;6.13;100.00;99467.38;6339656;22;19918;-82
2022/04/18 14:23:10;;;;;;;;;;;;;;;6.17;100.00;99455.84;6337604;22;19914;-83
2022/04/18 14:25:35;;;;;;;;;;;;;;;6.17;100.00;99468.13;6339094;22;19918;-80
2022/04/18 14:28:00;;;;;;;;;;;;;;;5.59;100.00;99471.50;6311460;22;19914;-84
2022/04/18 14:30:26;;;;;;;;;;;;;;;5.09;100.00;99468.47;6338046;22;19949;-83
2022/04/18 14:32:51;;;;;;;;;;;;;;;4.89;100.00;99469.78;6303902;22;19936;-80
2022/04/18 14:35:16;;;;;;;;;;;;;;;4.79;100.00;99463.06;6338917;22;19914;-81
2022/04/18 14:37:42;;;;;;;;;;;;;;;4.69;100.00;99464.16;6338154;22;19917;-81
2022/04/18 14:40:08;;;;;;;;;;;;;;;4.63;100.00;99459.09;6338999;22;19918;-81
2022/04/18 14:42:33;;;;;;;;;;;;;;;4.53;100.00;99461.91;6339483;22;19910;-82
2022/04/18 14:44:59;;;;;;;;;;;;;;;4.52;100.00;99467.19;6311376;22;20215;-82
2022/04/18 14:47:24;;;;;;;;;;;;;;;4.48;99.47;99450.69;6311403;22;19984;-81
2022/04/18 14:50:00;;;;;;;;;;;;;;;4.42;98.87;99453.44;6339204;22;19915;-83
2022/04/18 14:52:25;;;;;;;;;;;;;;;4.39;98.09;99448.25;6272147;22;19946;-81
2022/04/18 14:54:51;;;;;;;;;;;;;;;4.34;97.17;99456.22;6273983;22;19925;-81
2022/04/18 14:57:18;;;;;;;;;;;;;;;4.33;96.55;99448.41;6274382;22;19952;-81
2022/04/18 14:59:46;;;;;;;;;;;;;;;4.29;96.17;99451.97;6273931;22;19919;-81
2022/04/18 15:02:11;;;;;;;;;;;;;;;4.23;95.52;99452.09;6273585;22;20374;-81
2022/04/18 15:04:36;;;;;;;;;;;;;;;4.22;95.21;99450.41;6273749;22;19915;-84
2022/04/18 15:07:02;;;;;;;;;;;;;;;4.17;94.70;99451.34;6274319;22;20373;-83
2022/04/18 15:09:27;;;;;;;;;;;;;;;4.21;94.25;99448.66;6246675;22;19915;-82
2022/04/18 15:11:52;;;;;;;;;;;;;;;4.19;93.62;99446.94;6274047;22;19912;-82
2022/04/18 15:14:18;;;;;;;;;;;;;;;4.13;93.18;99444.47;6273779;22;19926;-81
2022/04/18 15:16:43;;;;;;;;;;;;;;;4.19;92.67;99453.94;6274255;22;20382;-82
2022/04/18 15:19:13;;;;;;;;;;;;;;;4.09;92.11;99449.81;6273515;22;20335;-82
2022/04/18 15:21:38;;;;;;;;;;;;;;;4.08;91.63;99448.06;6272769;22;20070;-81
2022/04/18 15:24:05;;;;;;;;;;;;;;;4.06;91.05;99442.88;6294917;22;20297;-82
2022/04/18 15:26:31;;;;;;;;;;;;;;;4.04;90.80;99447.28;6338637;22;19922;-81
2022/04/18 15:28:56;;;;;;;;;;;;;;;4.01;90.40;99442.09;6338214;22;19925;-81
2022/04/18 15:34:05;;;;;;;;;;;;;;;3.99;89.71;99443.91;6338421;22;19956;-81
2022/04/18 15:36:31;;;;;;;;;;;;;;;3.96;89.38;99436.09;6338871;22;19910;-81
2022/04/18 15:38:56;;;;;;;;;;;;;;;3.91;89.17;99440.56;6336659;22;20238;-81
2022/04/18 15:41:25;;;;;;;;;;;;;;;3.90;88.99;99434.47;6311716;22;19910;-81
2022/04/18 15:43:50;;;;;;;;;;;;;;;3.91;88.72;99436.19;6338322;22;20246;-81
2022/04/18 15:46:18;;;;;;;;;;;;;;;4.39;87.47;99434.25;6338969;22;19910;-81
2022/04/18 15:48:43;;;;;;;;;;;;;;;4.09;88.09;99434.94;6309851;22;19921;-85
2022/04/18 15:51:09;;;;;;;;;;;;;;;3.99;88.22;99434.28;6310348;22;20300;-84
2022/04/18 15:53:35;;;;;;;;;;;;;;;3.95;88.34;99431.75;6308938;22;19962;-84
2022/04/18 15:56:06;;;;;;;;;;;;;;;3.88;88.39;99432.75;6311373;22;19968;-81
2022/04/18 15:58:31;;;;;;;;;;;;;;;3.86;88.21;99422.34;6338202;22;19918;-81
2022/04/18 16:00:57;;;;;;;;;;;;;;;3.82;88.37;99432.00;6338175;22;19917;-81
2022/04/18 16:03:22;;;;;;;;;;;;;;;3.87;88.32;99426.66;6338391;22;19906;-81
2022/04/18 16:05:47;;;;;;;;;;;;;;;3.85;88.20;99425.00;6338765;22;19911;-81
2022/04/18 16:08:12;;;;;;;;;;;;;;;3.82;88.27;99426.75;6336983;22;19911;-81
2022/04/18 16:10:38;;;;;;;;;;;;;;;3.77;88.27;99433.00;6338854;22;19929;-81
2022/04/18 16:13:03;;;;;;;;;;;;;;;3.76;88.21;99429.50;6338127;22;19910;-84
2022/04/18 16:15:29;;;;;;;;;;;;;;;3.73;88.16;99432.19;6338382;22;19907;-86
2022/04/18 16:17:56;;;;;;;;;;;;;;;3.75;88.22;99432.16;6311045;22;19918;-84
2022/04/18 16:20:21;;;;;;;;;;;;;;;3.71;88.00;99427.88;6338165;22;20288;-84
2022/04/18 16:22:46;;;;;;;;;;;;;;;3.71;88.00;99422.66;6337209;22;19918;-84
2022/04/18 16:25:11;;;;;;;;;;;;;;;3.65;88.11;99423.63;6338278;22;19921;-84
2022/04/18 16:27:36;;;;;;;;;;;;;;;3.65;87.94;99415.75;6310389;22;19918;-82
2022/04/18 16:32:46;;;;;;;;;;;;;;;3.67;87.75;99408.75;6337054;22;19925;-81
2022/04/18 16:35:11;;;;;;;;;;;;;;;3.63;87.57;99409.69;6337388;22;19942;-82
2022/04/18 16:37:36;;;;;;;;;;;;;;;3.67;87.53;99416.63;6336966;22;19911;-83
2022/04/18 16:40:02;;;;;;;;;;;;;;;3.59;87.54;99414.16;6338043;22;20387;-82
2022/04/18 16:47:55;;;;;;;;;;;;;;;3.58;87.00;99407.16;6338251;22;19921;-85
2022/04/18 16:50:23;;;;;;;;;;;;;;;3.59;87.13;99414.16;6337111;22;19915;-84
2022/04/18 16:52:48;;;;;;;;;;;;;;;3.58;87.14;99408.94;6335480;22;19914;-84
2022/04/18 16:55:14;;;;;;;;;;;;;;;3.57;87.15;99413.28;6337762;22;19930;-84
2022/04/18 16:57:39;;;;;;;;;;;;;;;3.58;87.19;99416.78;6337238;22;19989;-82
2022/04/18 17:00:05;;;;;;;;;;;;;;;3.57;87.00;99413.28;6338258;22;19914;-82
2022/04/18 17:02:30;;;;;;;;;;;;;;;3.58;87.00;99407.16;6336859;22;20361;-81
2022/04/18 17:04:55;;;;;;;;;;;;;;;3.58;86.70;99407.16;6337819;22;19911;-82
2022/04/18 17:07:20;;;;;;;;;;;;;;;3.57;86.59;99408.06;6336791;22;19910;-85
2022/04/18 17:09:46;;;;;;;;;;;;;;;3.56;86.59;99402.88;6337273;22;19911;-82
2022/04/18 17:12:13;;;;;;;;;;;;;;;3.54;86.59;99409.88;6337467;22;20323;-85
2022/04/18 17:14:39;;;;;;;;;;;;;;;3.57;86.42;99404.56;6308990;22;19930;-83
2022/04/18 17:17:04;;;;;;;;;;;;;;;3.52;86.01;99406.44;6337768;22;19911;-84
2022/04/18 17:19:29;;;;;;;;;;;;;;;3.48;86.05;99404.75;6309488;22;19917;-85
2022/04/18 17:21:57;;;;;;;;;;;;;;;3.48;86.14;99410.88;6309992;22;19918;-85
2022/04/18 17:24:23;;;;;;;;;;;;;;;3.49;85.98;99406.50;6336721;22;19911;-84
2022/04/18 17:26:48;;;;;;;;;;;;;;;3.48;85.87;99400.41;6309851;22;19921;-83
2022/04/18 17:29:14;;;;;;;;;;;;;;;3.50;85.62;99408.22;6310662;22;19911;-83
2022/04/18 17:31:39;;;;;;;;;;;;;;;3.48;85.64;99404.75;6337696;22;19963;-83
2022/04/18 17:34:04;;;;;;;;;;;;;;;3.49;85.68;99396.88;6309805;22;19960;-83
2022/04/18 17:36:33;;;;;;;;;;;;;;;3.49;85.40;99398.63;6337411;22;20254;-83
2022/04/18 17:38:59;;;;;;;;;;;;;;;3.46;85.38;99394.31;6335302;22;19925;-83
2022/04/18 17:41:24;;;;;;;;;;;;;;;3.44;85.29;99404.81;6337929;22;19910;-83
2022/04/18 17:43:49;;;;;;;;;;;;;;;3.44;85.27;99403.97;6337476;22;19963;-83
2022/04/18 17:46:15;;;;;;;;;;;;;;;3.42;85.16;99404.00;6337920;22;20234;-83
2022/04/18 17:48:40;;;;;;;;;;;;;;;3.44;85.09;99410.06;6336563;22;19915;-82
2022/04/18 17:51:08;;;;;;;;;;;;;;;3.43;85.09;99408.34;6337619;22;19964;-83
2022/04/18 17:56:17;;;;;;;;;;;;;;;3.46;85.00;99402.16;6337394;22;19961;-83
2022/04/18 17:58:56;;;;;;;;;;;;;;;3.44;84.67;99414.44;6337219;22;19910;-85
2022/04/18 18:01:22;;;;;;;;;;;;;;;3.44;84.87;99410.06;6295805;22;19911;-83
2022/04/18 18:03:47;;;;;;;;;;;;;;;3.42;84.62;99405.75;6337200;22;19988;-83
2022/04/18 18:06:12;;;;;;;;;;;;;;;3.36;84.44;99411.97;6336878;22;19960;-82
2022/04/18 18:08:38;;;;;;;;;;;;;;;3.40;84.44;99411.03;6308304;22;19910;-82
2022/04/18 18:11:05;;;;;;;;;;;;;;;3.37;84.37;99413.69;6337767;22;19915;-83
2022/04/18 18:13:31;;;;;;;;;;;;;;;3.39;84.15;99409.28;6282705;22;20206;-82
2022/04/18 18:15:58;;;;;;;;;;;;;;;3.38;83.96;99417.16;6337822;22;19971;-83
2022/04/18 18:18:25;;;;;;;;;;;;;;;3.38;83.99;99410.19;6337469;22;19914;-83
2022/04/18 18:20:51;;;;;;;;;;;;;;;3.37;83.86;99411.09;6309668;22;19919;-83
2022/04/18 18:23:16;;;;;;;;;;;;;;;3.38;83.79;99425.91;6308239;22;19989;-83
2022/04/18 18:25:41;;;;;;;;;;;;;;;3.33;83.69;99419.03;6310393;22;19997;-83
2022/04/18 18:28:07;;;;;;;;;;;;;;;3.35;83.66;99420.75;6310011;22;19956;-87
2022/04/18 18:30:33;;;;;;;;;;;;;;;3.29;83.56;99413.00;6337510;22;19918;-82
2022/04/18 18:33:00;;;;;;;;;;;;;;;3.35;83.43;99414.63;6337374;22;19910;-82
2022/04/18 18:35:26;;;;;;;;;;;;;;;3.32;83.36;99418.16;6337381;22;19922;-82
2022/04/18 18:37:51;;;;;;;;;;;;;;;3.34;83.21;99424.22;6308400;22;19914;-82
2022/04/18 18:40:19;;;;;;;;;;;;;;;3.40;83.38;99423.28;6309451;22;19918;-83
2022/04/18 18:42:44;;;;;;;;;;;;;;;3.35;83.34;99428.59;6309813;22;19993;-84
2022/04/18 18:45:10;;;;;;;;;;;;;;;3.35;83.33;99425.09;6337639;22;19953;-84
2022/04/18 18:47:36;;;;;;;;;;;;;;;3.34;83.31;99429.47;6309797;22;19922;-83
2022/04/18 18:52:49;;;;;;;;;;;;;;;3.33;83.09;99432.13;6335675;22;20383;-83
2022/04/18 18:55:14;;;;;;;;;;;;;;;3.34;83.00;99442.56;6310018;22;20346;-83
2022/04/18 18:57:39;;;;;;;;;;;;;;;3.36;82.93;99439.91;6301397;22;19911;-83
2022/04/18 19:00:06;;;;;;;;;;;;;;;3.40;82.74;99441.59;6338632;22;19910;-84
2022/04/18 19:02:32;;;;;;;;;;;;;;;3.34;82.78;99445.19;6311760;22;19985;-83
2022/04/18 19:04:57;;;;;;;;;;;;;;;3.35;82.88;99446.03;6311788;22;19965;-83
2022/04/18 19:07:25;;;;;;;;;;;;;;;3.36;82.69;99446.00;6310398;22;20229;-83
2022/04/18 19:09:50;;;;;;;;;;;;;;;3.37;82.48;99460.84;6339302;22;20057;-83
2022/04/18 19:12:17;;;;;;;;;;;;;;;3.35;82.33;99460.03;6339110;22;20305;-83
2022/04/18 19:14:42;;;;;;;;;;;;;;;3.34;82.24;99460.91;6311940;22;19915;-83
2022/04/18 19:28:31;;;;;;;;;;;;;;;3.35;81.83;99467.88;6338547;22;19960;-83
2022/04/18 19:30:56;;;;;;;;;;;;;;;3.36;81.82;99469.59;6311885;22;20342;-84
2022/04/18 19:33:22;;;;;;;;;;;;;;;3.33;81.67;99468.78;6329110;22;19911;-84
2022/04/18 19:35:48;;;;;;;;;;;;;;;3.39;81.60;99466.91;6338871;22;19910;-84
2022/04/18 19:38:13;;;;;;;;;;;;;;;3.38;81.52;99466.94;6336368;22;20234;-84
2022/04/18 19:40:38;;;;;;;;;;;;;;;3.37;81.16;99471.31;6305445;22;20523;-84
2022/04/18 19:43:04;;;;;;;;;;;;;;;3.37;81.03;99470.47;6307334;22;20313;-84
2022/04/18 19:45:29;;;;;;;;;;;;;;;3.42;80.74;99477.34;6307077;22;19922;-84
2022/04/18 19:47:54;;;;;;;;;;;;;;;3.37;80.71;99468.69;6307562;22;19911;-83
2022/04/18 19:50:19;;;;;;;;;;;;;;;3.40;80.69;99468.66;6331762;22;19915;-84
2022/04/18 19:52:45;;;;;;;;;;;;;;;3.39;80.71;99477.38;6304205;22;19913;-84
2022/04/18 19:55:10;;;;;;;;;;;;;;;3.39;80.59;99479.16;6305617;22;19950;-83
2022/04/18 19:57:36;;;;;;;;;;;;;;;3.42;80.93;99468.63;6305828;22;19960;-84
2022/04/18 20:00:02;;;;;;;;;;;;;;;3.42;80.86;99474.72;6305815;22;19914;-83
2022/04/18 20:02:28;;;;;;;;;;;;;;;3.42;80.86;99473.84;6307426;22;20247;-85
2022/04/18 20:04:53;;;;;;;;;;;;;;;3.42;80.73;99476.47;6331783;22;19918;-83
2022/04/18 20:07:20;;;;;;;;;;;;;;;3.39;80.72;99480.00;6330753;22;20478;-84
2022/04/18 20:09:46;;;;;;;;;;;;;;;3.39;80.80;99479.16;6305367;22;19990;-83
2022/04/18 20:12:11;;;;;;;;;;;;;;;3.41;80.84;99486.06;6307529;22;19988;-83
2022/04/18 20:14:37;;;;;;;;;;;;;;;3.42;80.77;99485.19;6304807;22;19972;-83
2022/04/18 20:17:03;;;;;;;;;;;;;;;3.43;80.94;99484.31;6332321;22;19914;-83
2022/04/18 20:19:28;;;;;;;;;;;;;;;3.41;80.87;99483.44;6331736;22;19947;-83
2022/04/18 20:21:55;;;;;;;;;;;;;;;3.45;80.93;99487.75;6332216;22;19918;-84
2022/04/18 20:24:20;;;;;;;;;;;;;;;3.41;80.95;99487.84;6330106;22;20231;-83
2022/04/18 20:26:45;;;;;;;;;;;;;;;3.42;81.06;99485.19;6331763;22;19918;-83
2022/04/18 20:29:11;;;;;;;;;;;;;;;3.42;81.20;99486.97;6331876;22;19910;-83
2022/04/18 20:31:36;;;;;;;;;;;;;;;3.41;81.17;99490.47;6307178;22;20322;-83
2022/04/18 20:34:03;;;;;;;;;;;;;;;3.42;81.08;99490.44;6331591;22;20279;-83
2022/04/18 20:36:28;;;;;;;;;;;;;;;3.42;80.91;99486.97;6331401;22;19907;-83
2022/04/18 20:38:54;;;;;;;;;;;;;;;3.43;80.78;99483.44;6329856;22;19926;-83
2022/04/18 20:41:19;;;;;;;;;;;;;;;3.43;80.76;99480.81;6331803;22;19911;-83
2022/04/18 20:43:45;;;;;;;;;;;;;;;3.45;80.79;99479.03;6331635;22;20350;-83
2022/04/18 20:46:10;;;;;;;;;;;;;;;3.45;80.68;99485.13;6307156;22;20327;-83
2022/04/18 20:48:40;;;;;;;;;;;;;;;3.47;80.37;99479.00;6306677;22;19918;-83
2022/04/18 20:51:06;;;;;;;;;;;;;;;3.48;80.37;99478.09;6307451;22;20341;-83
2022/04/18 20:59:00;;;;;;;;;;;;;;;3.50;80.25;99477.19;6306710;22;19921;-84
2022/04/18 21:01:26;;;;;;;;;;;;;;;3.50;80.22;99479.81;6306846;22;19989;-83
2022/04/18 21:03:51;;;;;;;;;;;;;;;3.49;80.04;99474.59;6305469;22;19929;-84
2022/04/18 21:06:17;;;;;;;;;;;;;;;3.51;79.84;99473.69;6306992;22;19964;-83
2022/04/18 21:08:43;;;;;;;;;;;;;;;3.52;79.59;99474.53;6305541;22;19922;-84
2022/04/18 21:11:09;;;;;;;;;;;;;;;3.53;79.32;99477.13;6306812;22;20028;-84
2022/04/18 21:13:35;;;;;;;;;;;;;;;3.50;79.29;99474.56;6306581;22;19915;-84
2022/04/18 21:16:02;;;;;;;;;;;;;;;3.56;79.25;99473.59;6307274;22;19917;-83
2022/04/18 21:18:27;;;;;;;;;;;;;;;3.55;79.16;99474.50;6306445;22;19922;-83
2022/04/18 21:20:54;;;;;;;;;;;;;;;3.53;79.25;99476.28;6306663;22;19915;-83
2022/04/18 21:23:19;;;;;;;;;;;;;;;3.56;79.13;99466.59;6305155;22;19978;-83
2022/04/18 21:25:44;;;;;;;;;;;;;;;3.56;79.10;99465.75;6306488;22;19915;-82
2022/04/18 21:28:11;;;;;;;;;;;;;;;3.59;79.17;99465.66;6305004;22;19915;-82
2022/04/18 21:30:36;;;;;;;;;;;;;;;3.60;78.88;99470.03;6306852;22;19915;-83
2022/04/18 21:33:02;;;;;;;;;;;;;;;3.59;78.55;99469.16;6306600;22;20193;-83
2022/04/18 21:35:27;;;;;;;;;;;;;;;3.60;78.31;99467.41;6306450;22;19985;-83
2022/04/18 21:37:53;;;;;;;;;;;;;;;3.61;78.10;99466.50;6303462;22;19911;-82
2022/04/18 21:40:18;;;;;;;;;;;;;;;3.61;78.14;99469.13;6330723;22;19923;-82
2022/04/18 21:42:44;;;;;;;;;;;;;;;3.64;78.08;99476.94;6337726;22;19942;-82
2022/04/18 21:45:12;;;;;;;;;;;;;;;3.62;77.82;99465.59;6338612;22;20230;-82
2022/04/18 21:47:37;;;;;;;;;;;;;;;3.64;77.78;99469.94;6310370;22;19922;-83
2022/04/18 21:50:03;;;;;;;;;;;;;;;3.65;77.58;99470.78;6337601;22;19910;-83
2022/04/18 21:52:29;;;;;;;;;;;;;;;3.65;77.40;99465.53;6336257;22;20330;-82
2022/04/18 21:54:54;;;;;;;;;;;;;;;3.67;77.19;99463.78;6338122;22;19911;-83
2022/04/18 21:57:20;;;;;;;;;;;;;;;3.69;77.12;99469.00;6337723;22;19918;-83
2022/04/18 21:59:45;;;;;;;;;;;;;;;3.70;77.14;99471.59;6337903;22;19921;-83
2022/04/18 22:02:11;;;;;;;;;;;;;;;3.70;77.10;99468.06;6338162;22;19914;-83
2022/04/18 22:04:36;;;;;;;;;;;;;;;3.72;77.07;99469.78;6337794;22;19914;-83
2022/04/18 22:07:02;;;;;;;;;;;;;;;3.73;77.07;99458.38;6337767;22;19916;-83
2022/04/18 22:09:27;;;;;;;;;;;;;;;3.76;77.10;99465.34;6308595;22;19914;-82
2022/04/18 22:11:53;;;;;;;;;;;;;;;3.75;76.66;99461.88;6309823;22;19911;-84
2022/04/18 22:14:19;;;;;;;;;;;;;;;3.76;76.59;99466.19;6309965;22;19919;-82
2022/04/18 22:16:45;;;;;;;;;;;;;;;3.77;76.61;99448.72;6338124;22;19917;-83
2022/04/18 22:24:53;;;;;;;;;;;;;;;3.80;76.60;99444.28;6335882;22;20254;-83
2022/04/18 22:27:19;;;;;;;;;;;;;;;3.82;76.68;99442.47;6309905;22;20267;-82
2022/04/18 22:29:44;;;;;;;;;;;;;;;3.83;76.52;99435.50;6309801;22;19960;-83
2022/04/18 22:32:10;;;;;;;;;;;;;;;3.84;76.62;99431.97;6311803;22;20336;-84
2022/04/18 22:34:35;;;;;;;;;;;;;;;3.86;76.56;99437.19;6311922;22;19964;-82
2022/04/18 22:37:01;;;;;;;;;;;;;;;3.85;76.32;99435.47;6312022;22;20203;-82
2022/04/18 22:39:26;;;;;;;;;;;;;;;3.87;76.21;99425.81;6337810;22;19921;-83
2022/04/18 22:41:52;;;;;;;;;;;;;;;3.90;76.23;99431.84;6311768;22;19918;-83
2022/04/18 22:44:17;;;;;;;;;;;;;;;3.92;76.37;99423.94;6311870;22;19918;-84
2022/04/18 22:46:42;;;;;;;;;;;;;;;3.92;76.20;99426.56;6311603;22;19911;-85
2022/04/18 22:49:09;;;;;;;;;;;;;;;3.96;76.35;99436.97;6311689;22;19911;-83
2022/04/18 22:51:34;;;;;;;;;;;;;;;3.96;76.32;99429.09;6339452;22;19911;-84
2022/04/18 22:53:59;;;;;;;;;;;;;;;3.95;76.25;99429.13;6309947;22;19968;-84
2022/04/18 22:56:25;;;;;;;;;;;;;;;3.96;75.85;99428.25;6311693;22;19915;-85
2022/04/18 22:58:50;;;;;;;;;;;;;;;3.98;75.71;99429.06;6311812;22;19919;-84
2022/04/18 23:01:17;;;;;;;;;;;;;;;3.99;75.58;99428.19;6311571;22;19911;-84
2022/04/18 23:03:43;;;;;;;;;;;;;;;4.00;75.23;99425.53;6311481;22;19914;-86
2022/04/18 23:06:09;;;;;;;;;;;;;;;4.05;75.00;99419.28;6311518;22;19953;-85
2022/04/18 23:08:37;;;;;;;;;;;;;;;4.04;74.90;99414.94;6309965;22;20255;-85
2022/04/18 23:11:03;;;;;;;;;;;;;;;4.05;75.00;99414.91;6311540;22;19915;-85
2022/04/18 23:13:28;;;;;;;;;;;;;;;4.06;74.88;99414.03;6339284;22;19964;-84
2022/04/18 23:15:53;;;;;;;;;;;;;;;4.06;74.91;99414.03;6339124;22;19914;-85
2022/04/18 23:18:18;;;;;;;;;;;;;;;4.10;75.14;99410.44;6339053;22;19915;-86
2022/04/18 23:20:44;;;;;;;;;;;;;;;4.10;75.04;99414.81;6338935;22;20298;-84
2022/04/18 23:23:09;;;;;;;;;;;;;;;4.09;75.01;99408.72;6337379;22;19957;-85
2022/04/18 23:25:35;;;;;;;;;;;;;;;4.10;74.94;99405.19;6339445;22;19918;-84
2022/04/18 23:28:01;;;;;;;;;;;;;;;4.12;75.01;99408.63;6311875;22;19915;-85
2022/04/18 23:30:30;;;;;;;;;;;;;;;4.14;75.04;99401.59;6311554;22;19922;-85
2022/04/18 23:32:55;;;;;;;;;;;;;;;4.17;75.15;99411.16;6311355;22;19914;-85
2022/04/18 23:35:20;;;;;;;;;;;;;;;4.17;75.10;99406.78;6311571;22;19914;-85
2022/04/18 23:37:46;;;;;;;;;;;;;;;4.19;75.34;99404.97;6337184;22;19937;-84
2022/04/18 23:42:55;;;;;;;;;;;;;;;6.05;77.89;99392.19;6307630;22;19922;-73
2022/04/18 23:45:20;;;;;;;;;;;;;;;6.26;78.29;99390.69;6307791;22;19915;-85
2022/04/18 23:47:46;;;;;;;;;;;;;;;5.35;78.84;99378.44;6280648;22;19942;-89
